Time;durP1;ratioP1;P1;durP2;ratioP2;P2;SDS_P1;SDS_P2;PMS_P1;PMS_P2;Temp;Humidity;BMP_temperature;BMP_pressure;BME280_temperature;BME280_humidity;BME280_pressure;Samples;Min_cycle;Max_cycle;Signal;HPM_P1;HPM_P2
2022/12/11 00:03:03;;;;;;;;;;;;;;;14.18;35.62;94750.13;10424069;28;2621;-53
2022/12/11 00:08:11;;;;;;;;;;;;;;;14.17;35.75;94753.78;10438874;28;2632;-53
2022/12/11 00:13:12;;;;;;;;;;;;;;;14.10;35.91;94748.03;10418995;28;2600;-53
2022/12/11 00:18:13;;;;;;;;;;;;;;;14.15;35.71;94749.88;10429252;28;2605;-52
2022/12/11 00:23:13;;;;;;;;;;;;;;;14.18;35.56;94752.72;10418375;28;2677;-52
2022/12/11 00:28:14;;;;;;;;;;;;;;;14.11;35.68;94747.00;10436385;28;2730;-54
2022/12/11 00:33:15;;;;;;;;;;;;;;;14.14;35.67;94743.88;10424451;28;2595;-54
2022/12/11 00:38:15;;;;;;;;;;;;;;;14.14;35.66;94748.28;10426791;28;2645;-53
2022/12/11 00:43:16;;;;;;;;;;;;;;;14.14;35.68;94750.88;10430322;28;2683;-53
2022/12/11 00:48:16;;;;;;;;;;;;;;;14.11;35.81;94746.22;10441083;28;2158;-54
2022/12/11 00:53:16;;;;;;;;;;;;;;;14.13;35.62;94746.72;10428167;28;2539;-50
2022/12/11 00:58:16;;;;;;;;;;;;;;;14.12;35.74;94747.75;10440918;28;2572;-52
2022/12/11 01:03:17;;;;;;;;;;;;;;;14.11;35.62;94749.59;10437178;28;2612;-53
2022/12/11 01:08:17;;;;;;;;;;;;;;;14.11;35.63;94752.22;10443802;28;2487;-49
2022/12/11 01:13:17;;;;;;;;;;;;;;;14.08;35.69;94762.34;10425324;28;2010;-53
2022/12/11 01:18:20;;;;;;;;;;;;;;;14.09;35.68;94774.34;10433042;28;2618;-53
2022/12/11 01:23:21;;;;;;;;;;;;;;;14.07;35.79;94766.78;10441557;28;2605;-54
2022/12/11 01:28:21;;;;;;;;;;;;;;;14.12;35.58;94774.59;10438023;28;2576;-52
2022/12/11 01:33:21;;;;;;;;;;;;;;;14.06;35.67;94788.66;10433865;28;2601;-54
2022/12/11 01:38:21;;;;;;;;;;;;;;;14.07;35.57;94790.25;10431085;28;1998;-53
2022/12/11 01:43:22;;;;;;;;;;;;;;;14.06;35.63;94793.88;10438622;28;2550;-50
2022/12/11 01:48:26;;;;;;;;;;;;;;;14.06;35.58;94799.09;10445484;28;2588;-52
2022/12/11 01:53:34;;;;;;;;;;;;;;;14.08;35.67;94791.00;10452440;28;2158;-53
2022/12/11 01:58:50;;;;;;;;;;;;;;;14.05;35.73;94799.34;10420644;28;2560;-52
2022/12/11 02:03:50;;;;;;;;;;;;;;;14.02;35.73;94792.81;10435846;28;2602;-53
2022/12/11 02:08:51;;;;;;;;;;;;;;;14.02;35.60;94792.03;10446565;28;2604;-54
2022/12/11 02:13:51;;;;;;;;;;;;;;;14.03;35.56;94794.41;10447310;28;2636;-55
2022/12/11 02:18:58;;;;;;;;;;;;;;;14.00;35.82;94784.47;10433962;28;2621;-53
2022/12/11 02:24:11;;;;;;;;;;;;;;;13.98;35.60;94770.13;10448337;28;2648;-55
2022/12/11 02:29:12;;;;;;;;;;;;;;;13.98;35.62;94778.72;10436469;28;2670;-53
2022/12/11 02:34:14;;;;;;;;;;;;;;;14.01;35.77;94783.44;10449813;28;2032;-52
2022/12/11 02:39:15;;;;;;;;;;;;;;;13.95;35.90;94774.03;10432586;28;2636;-51
2022/12/11 02:44:17;;;;;;;;;;;;;;;13.97;35.75;94771.97;10456357;28;2582;-54
2022/12/11 02:49:18;;;;;;;;;;;;;;;13.95;35.77;94773.25;10429648;28;2574;-52
2022/12/11 02:54:22;;;;;;;;;;;;;;;13.97;35.81;94781.59;10445274;28;2038;-52
2022/12/11 02:59:27;;;;;;;;;;;;;;;13.97;35.69;94782.41;10424062;28;2728;-52
2022/12/11 03:04:28;;;;;;;;;;;;;;;13.94;35.60;94776.88;10435267;28;2618;-53
2022/12/11 03:09:28;;;;;;;;;;;;;;;13.96;35.51;94785.22;10432334;28;2072;-50
2022/12/11 03:14:28;;;;;;;;;;;;;;;13.92;35.67;94784.97;10423686;28;2562;-52
2022/12/11 03:19:36;;;;;;;;;;;;;;;13.90;35.75;94792.25;10424950;28;2626;-54
2022/12/11 03:24:43;;;;;;;;;;;;;;;13.93;35.76;94790.97;10432481;28;2700;-53
2022/12/11 03:29:50;;;;;;;;;;;;;;;13.92;35.68;94798.00;10441357;28;2670;-49
2022/12/11 03:34:56;;;;;;;;;;;;;;;13.95;35.66;94800.06;10443056;28;2610;-52
2022/12/11 03:39:57;;;;;;;;;;;;;;;13.91;35.80;94801.63;10442952;28;2547;-53
2022/12/11 03:44:58;;;;;;;;;;;;;;;13.93;35.68;94802.16;10406501;28;2524;-54
2022/12/11 03:49:58;;;;;;;;;;;;;;;13.91;35.56;94804.22;10434810;28;2673;-55
2022/12/11 03:54:59;;;;;;;;;;;;;;;13.92;35.69;94798.00;10428372;28;2645;-50
2022/12/11 04:00:00;;;;;;;;;;;;;;;13.89;35.77;94798.47;10430779;28;2010;-51
2022/12/11 04:05:00;;;;;;;;;;;;;;;13.88;35.60;94809.97;10453307;28;3078;-55
2022/12/11 04:10:00;;;;;;;;;;;;;;;13.88;35.55;94804.75;10426420;28;2623;-52
2022/12/11 04:15:03;;;;;;;;;;;;;;;13.86;35.89;94801.63;10428278;28;2682;-54
2022/12/11 04:25:25;;;;;;;;;;;;;;;13.85;35.67;94794.81;10426488;28;2686;-52
2022/12/11 04:30:26;;;;;;;;;;;;;;;13.83;35.63;94807.31;10432012;28;2774;-51
2022/12/11 04:35:26;;;;;;;;;;;;;;;13.85;35.61;94794.81;10445185;28;2029;-50
2022/12/11 04:40:26;;;;;;;;;;;;;;;13.84;35.67;94795.88;10430672;28;2667;-51
2022/12/11 04:45:27;;;;;;;;;;;;;;;13.86;35.47;94789.38;10437531;28;2616;-54
2022/12/11 04:50:27;;;;;;;;;;;;;;;13.86;35.60;94791.19;10442012;28;2558;-50
2022/12/11 04:55:27;;;;;;;;;;;;;;;13.87;35.54;94798.75;10431658;28;2586;-56
2022/12/11 05:00:28;;;;;;;;;;;;;;;13.80;35.67;94798.22;10438913;28;2527;-54
2022/12/11 05:05:28;;;;;;;;;;;;;;;13.83;35.50;94786.47;10435689;28;2050;-54
2022/12/11 05:10:33;;;;;;;;;;;;;;;13.81;35.48;94783.34;10452786;28;2690;-52
2022/12/11 05:15:34;;;;;;;;;;;;;;;13.81;35.51;94786.75;10436847;28;1999;-53
2022/12/11 05:20:34;;;;;;;;;;;;;;;13.79;35.56;94780.22;10427248;28;2623;-51
2022/12/11 05:25:34;;;;;;;;;;;;;;;13.79;35.55;94782.81;10431913;28;2057;-53
2022/12/11 05:30:44;;;;;;;;;;;;;;;13.81;35.58;94773.72;10438992;28;2618;-54
2022/12/11 05:35:45;;;;;;;;;;;;;;;13.79;35.50;94772.41;10442564;28;2590;-53
2022/12/11 05:40:56;;;;;;;;;;;;;;;13.78;35.62;94779.44;10448714;28;2605;-52
2022/12/11 05:45:59;;;;;;;;;;;;;;;13.81;35.60;94773.72;10436460;28;2624;-52
2022/12/11 05:50:59;;;;;;;;;;;;;;;13.78;35.65;94779.44;10455147;28;2034;-54
2022/12/11 05:56:04;;;;;;;;;;;;;;;13.76;35.47;94791.94;10427060;28;2014;-52
2022/12/11 06:01:07;;;;;;;;;;;;;;;13.75;35.43;94782.53;10436537;28;2994;-53
2022/12/11 06:06:08;;;;;;;;;;;;;;;13.76;35.40;94775.53;10439453;28;2546;-53
2022/12/11 06:11:08;;;;;;;;;;;;;;;13.78;35.44;94776.06;10430906;28;2548;-53
2022/12/11 06:16:09;;;;;;;;;;;;;;;13.79;35.35;94767.97;10431049;28;2508;-53
2022/12/11 06:21:29;;;;;;;;;;;;;;;13.76;35.46;94768.50;10443740;28;2614;-53
2022/12/11 06:26:30;;;;;;;;;;;;;;;13.76;35.40;94772.91;10436975;28;2575;-53
2022/12/11 06:31:31;;;;;;;;;;;;;;;13.74;35.36;94778.38;10422337;28;2556;-54
2022/12/11 06:36:31;;;;;;;;;;;;;;;13.78;35.47;94779.44;10431579;28;2014;-52
2022/12/11 06:41:31;;;;;;;;;;;;;;;13.74;35.42;94772.38;10444082;28;2563;-51
2022/12/11 06:46:31;;;;;;;;;;;;;;;13.73;35.37;94778.63;10433913;28;2565;-49
2022/12/11 06:51:32;;;;;;;;;;;;;;;13.75;35.39;94776.53;10427703;28;2575;-53
2022/12/11 06:56:33;;;;;;;;;;;;;;;13.71;35.28;94776.28;10438666;28;2564;-49
2022/12/11 07:01:33;;;;;;;;;;;;;;;13.71;35.43;94765.84;10430932;28;2742;-51
2022/12/11 07:06:34;;;;;;;;;;;;;;;13.73;35.39;94770.81;10425306;28;2541;-51
2022/12/11 07:11:34;;;;;;;;;;;;;;;13.71;35.49;94778.09;10435625;28;2915;-53
2022/12/11 07:16:35;;;;;;;;;;;;;;;13.70;35.32;94772.09;10443649;28;2102;-53
2022/12/11 07:21:45;;;;;;;;;;;;;;;13.71;35.48;94788.50;10420239;28;2600;-54
2022/12/11 07:26:45;;;;;;;;;;;;;;;13.71;35.36;94796.31;10438564;28;2589;-52
2022/12/11 07:31:46;;;;;;;;;;;;;;;13.70;35.44;94792.16;10429001;28;2619;-52
2022/12/11 07:36:47;;;;;;;;;;;;;;;13.68;35.47;94805.41;10420358;28;2034;-52
2022/12/11 07:41:47;;;;;;;;;;;;;;;13.67;35.50;94805.66;10435681;28;2639;-53
2022/12/11 07:46:47;;;;;;;;;;;;;;;13.71;35.35;94796.31;10436543;28;2587;-49
2022/12/11 07:51:48;;;;;;;;;;;;;;;13.68;35.22;94789.03;10428064;28;2606;-55
2022/12/11 07:56:49;;;;;;;;;;;;;;;13.66;35.30;94799.66;10444803;28;2642;-52
2022/12/11 08:01:49;;;;;;;;;;;;;;;13.65;35.61;94800.72;10453381;28;2605;-52
2022/12/11 08:06:49;;;;;;;;;;;;;;;13.68;35.15;94804.66;10460074;28;2557;-50
2022/12/11 08:11:50;;;;;;;;;;;;;;;13.69;35.44;94798.38;10451587;28;2037;-54
2022/12/11 08:16:50;;;;;;;;;;;;;;;13.67;35.23;94803.06;10453685;28;2602;-52
2022/12/11 08:21:50;;;;;;;;;;;;;;;13.64;35.25;94798.38;10437249;28;2026;-54
2022/12/11 08:26:50;;;;;;;;;;;;;;;13.64;35.42;94790.56;10441383;28;2145;-53
2022/12/11 08:31:51;;;;;;;;;;;;;;;13.66;35.39;94810.09;10439999;28;2563;-51
2022/12/11 08:36:51;;;;;;;;;;;;;;;13.64;35.31;94819.97;10438395;28;1983;-54
2022/12/11 08:41:51;;;;;;;;;;;;;;;13.62;35.30;94816.06;10449316;28;2741;-53
2022/12/11 08:46:52;;;;;;;;;;;;;;;13.62;35.19;94822.03;10436700;28;2573;-52
2022/12/11 08:51:52;;;;;;;;;;;;;;;13.65;35.45;94826.75;10437623;28;2745;-53
2022/12/11 08:56:54;;;;;;;;;;;;;;;13.62;35.47;94822.03;10441515;28;2661;-52
2022/12/11 09:01:54;;;;;;;;;;;;;;;13.60;35.29;94823.34;10438930;28;1955;-54
2022/12/11 09:06:54;;;;;;;;;;;;;;;13.59;35.54;94822.56;10433819;28;2642;-55
2022/12/11 09:11:55;;;;;;;;;;;;;;;13.62;35.41;94827.25;10442416;28;2625;-53
2022/12/11 09:16:55;;;;;;;;;;;;;;;13.60;35.52;94825.97;10438222;28;2531;-52
2022/12/11 09:21:56;;;;;;;;;;;;;;;13.57;35.36;94824.63;10445826;28;2641;-51
2022/12/11 09:26:56;;;;;;;;;;;;;;;13.58;35.55;94820.97;10435994;28;2602;-55
2022/12/11 09:31:56;;;;;;;;;;;;;;;13.59;35.44;94821.78;10433863;28;2669;-55
2022/12/11 09:36:56;;;;;;;;;;;;;;;13.59;35.42;94816.56;10430371;28;2634;-53
2022/12/11 09:42:01;;;;;;;;;;;;;;;13.57;35.70;94814.22;10422899;28;2627;-53
2022/12/11 09:47:02;;;;;;;;;;;;;;;13.59;35.64;94816.56;10441460;28;2015;-53
2022/12/11 09:52:15;;;;;;;;;;;;;;;13.57;35.42;94808.22;10446375;28;2543;-53
2022/12/11 09:57:22;;;;;;;;;;;;;;;13.58;35.61;94802.00;10422818;28;2515;-53
2022/12/11 10:02:41;;;;;;;;;;;;;;;13.58;35.35;94804.59;10446482;28;2702;-51
2022/12/11 10:07:48;;;;;;;;;;;;;;;13.55;35.46;94799.88;10431053;28;2751;-52
2022/12/11 10:13:01;;;;;;;;;;;;;;;13.56;35.49;94802.22;10428277;28;2550;-52
2022/12/11 10:18:03;;;;;;;;;;;;;;;13.56;35.67;94791.06;10435516;28;2556;-53
2022/12/11 10:23:05;;;;;;;;;;;;;;;13.57;35.59;94779.59;10433142;28;2596;-53
2022/12/11 10:28:10;;;;;;;;;;;;;;;13.59;35.48;94782.72;10433945;28;2653;-54
2022/12/11 10:33:10;;;;;;;;;;;;;;;13.58;35.50;94765.53;10426252;28;2598;-52
2022/12/11 10:38:10;;;;;;;;;;;;;;;13.58;35.59;94768.16;10432355;28;2574;-51
2022/12/11 10:43:10;;;;;;;;;;;;;;;13.56;35.65;94765.00;10434176;28;2595;-55
2022/12/11 10:48:12;;;;;;;;;;;;;;;13.61;35.32;94763.22;10429064;28;2685;-53
2022/12/11 10:53:21;;;;;;;;;;;;;;;13.63;35.40;94760.34;10437278;28;2603;-50
2022/12/11 10:58:22;;;;;;;;;;;;;;;13.64;35.44;94756.72;10430161;28;2659;-51
2022/12/11 11:03:23;;;;;;;;;;;;;;;13.65;35.39;94747.84;10425174;28;2652;-54
2022/12/11 11:08:23;;;;;;;;;;;;;;;13.66;35.17;94739.78;10425970;28;2737;-51
2022/12/11 11:13:27;;;;;;;;;;;;;;;13.65;35.38;94737.44;10438736;28;2555;-55
2022/12/11 11:18:28;;;;;;;;;;;;;;;13.64;35.53;94735.88;10431985;28;2494;-52
2022/12/11 11:23:28;;;;;;;;;;;;;;;13.54;35.62;94722.81;10430135;28;2628;-52
2022/12/11 11:28:36;;;;;;;;;;;;;;;13.56;35.54;94708.50;10434832;28;2570;-54
2022/12/11 11:33:44;;;;;;;;;;;;;;;13.57;35.54;94704.88;10435705;28;2096;-52
2022/12/11 11:38:55;;;;;;;;;;;;;;;13.56;35.62;94707.72;10429812;28;2747;-53
2022/12/11 11:43:56;;;;;;;;;;;;;;;13.62;35.54;94701.50;10427262;28;2136;-51
2022/12/11 11:48:59;;;;;;;;;;;;;;;13.54;35.66;94700.16;10436326;28;2611;-53
2022/12/11 11:54:00;;;;;;;;;;;;;;;13.59;35.51;94696.78;10444986;28;2008;-51
2022/12/11 11:59:02;;;;;;;;;;;;;;;13.57;35.40;94699.66;10431453;28;2801;-52
2022/12/11 12:04:03;;;;;;;;;;;;;;;13.57;35.51;94693.66;10433882;28;2117;-54
2022/12/11 12:09:22;;;;;;;;;;;;;;;13.58;35.48;94693.41;10419147;28;2988;-54
2022/12/11 12:14:23;;;;;;;;;;;;;;;13.57;35.29;94683.25;10427176;28;2623;-52
2022/12/11 12:19:26;;;;;;;;;;;;;;;13.51;35.47;94676.47;10425512;28;2549;-53
2022/12/11 12:24:29;;;;;;;;;;;;;;;13.58;35.36;94680.38;10426521;28;2667;-52
2022/12/11 12:29:29;;;;;;;;;;;;;;;13.54;35.30;94681.16;10438123;28;2599;-50
2022/12/11 12:34:32;;;;;;;;;;;;;;;13.62;35.22;94686.66;10424341;28;2567;-52
2022/12/11 12:39:38;;;;;;;;;;;;;;;13.61;35.09;94684.31;10434004;28;2531;-53
2022/12/11 12:44:45;;;;;;;;;;;;;;;13.62;35.37;94676.22;10443072;28;2606;-52
2022/12/11 12:49:46;;;;;;;;;;;;;;;13.63;35.20;94672.59;10447224;28;2625;-50
2022/12/11 13:00:12;;;;;;;;;;;;;;;13.62;35.11;94671.03;10430567;28;2721;-51
2022/12/11 13:05:19;;;;;;;;;;;;;;;13.59;35.31;94681.16;10442974;28;2667;-52
2022/12/11 13:10:24;;;;;;;;;;;;;;;13.63;35.14;94670.00;10451875;28;2029;-51
2022/12/11 13:15:24;;;;;;;;;;;;;;;13.59;35.25;94673.38;10434156;28;2585;-52
2022/12/11 13:20:26;;;;;;;;;;;;;;;13.56;35.31;94668.69;10441312;28;2603;-53
2022/12/11 13:25:27;;;;;;;;;;;;;;;13.56;35.39;94666.06;10432869;28;2593;-53
2022/12/11 13:30:27;;;;;;;;;;;;;;;13.49;35.50;94674.13;10435213;28;2589;-55
2022/12/11 13:35:28;;;;;;;;;;;;;;;13.58;35.19;94674.41;10438104;28;2567;-53
2022/12/11 13:40:32;;;;;;;;;;;;;;;13.52;35.55;94680.63;10435305;28;2608;-52
2022/12/11 13:45:41;;;;;;;;;;;;;;;13.55;35.55;94682.72;10448882;28;2611;-53
2022/12/11 13:50:41;;;;;;;;;;;;;;;13.50;35.49;94678.28;10434575;28;2634;-55
2022/12/11 13:55:41;;;;;;;;;;;;;;;13.50;35.65;94674.88;10433593;28;2737;-52
2022/12/11 14:00:42;;;;;;;;;;;;;;;13.55;35.30;94680.13;10437726;28;2706;-54
2022/12/11 14:05:42;;;;;;;;;;;;;;;13.54;35.39;94676.72;10460548;28;2598;-52
2022/12/11 14:10:42;;;;;;;;;;;;;;;13.49;35.53;94675.94;10429735;28;2566;-51
2022/12/11 14:15:48;;;;;;;;;;;;;;;13.50;35.37;94678.28;10440504;28;2613;-54
2022/12/11 14:20:52;;;;;;;;;;;;;;;13.50;35.36;94678.28;10435677;28;2963;-54
2022/12/11 14:25:57;;;;;;;;;;;;;;;13.50;35.49;94677.47;10436135;28;2550;-52
2022/12/11 14:30:58;;;;;;;;;;;;;;;13.48;35.50;94684.75;10449377;28;2547;-54
2022/12/11 14:35:58;;;;;;;;;;;;;;;13.48;35.38;94687.38;10441095;28;2585;-54
2022/12/11 14:41:00;;;;;;;;;;;;;;;13.44;35.42;94681.91;10442455;28;2986;-52
2022/12/11 14:46:15;;;;;;;;;;;;;;;13.37;35.61;94690.97;10450979;28;2586;-56
2022/12/11 14:51:16;;;;;;;;;;;;;;;13.38;35.56;94688.13;10446437;28;2586;-54
2022/12/11 14:56:17;;;;;;;;;;;;;;;13.37;35.55;94693.59;10420578;28;2599;-54
2022/12/11 15:01:21;;;;;;;;;;;;;;;13.34;35.63;94694.06;10443231;28;3039;-53
2022/12/11 15:06:24;;;;;;;;;;;;;;;13.31;35.69;94695.38;10430229;28;2570;-54
2022/12/11 15:11:28;;;;;;;;;;;;;;;13.32;35.55;94691.72;10442636;28;2508;-53
2022/12/11 15:16:30;;;;;;;;;;;;;;;13.30;35.60;94693.00;10434802;28;2609;-55
2022/12/11 15:21:32;;;;;;;;;;;;;;;13.30;35.77;94688.59;10448806;28;2536;-52
2022/12/11 15:26:33;;;;;;;;;;;;;;;13.28;35.79;94690.66;10441662;28;2046;-50
2022/12/11 15:31:43;;;;;;;;;;;;;;;13.27;35.85;94691.69;10423878;28;2585;-52
2022/12/11 15:36:43;;;;;;;;;;;;;;;13.26;35.61;94679.72;10448896;28;2571;-52
2022/12/11 15:41:43;;;;;;;;;;;;;;;13.28;35.40;94695.88;10437700;28;2053;-50
2022/12/11 15:46:44;;;;;;;;;;;;;;;13.27;35.45;94688.31;10425258;28;2643;-54
2022/12/11 15:51:44;;;;;;;;;;;;;;;13.30;35.59;94693.00;10437467;28;2084;-53
2022/12/11 15:56:44;;;;;;;;;;;;;;;13.30;35.41;94698.22;10463817;28;2627;-53
2022/12/11 16:01:44;;;;;;;;;;;;;;;13.31;35.42;94699.81;10434987;28;2634;-54
2022/12/11 16:06:49;;;;;;;;;;;;;;;13.26;35.45;94705.75;10434689;28;2638;-53
2022/12/11 16:11:50;;;;;;;;;;;;;;;13.30;35.35;94708.63;10425785;28;2676;-55
2022/12/11 16:16:50;;;;;;;;;;;;;;;13.27;35.31;94720.31;10433433;28;2652;-54
2022/12/11 16:21:51;;;;;;;;;;;;;;;13.27;35.31;94709.16;10444928;28;2623;-54
2022/12/11 16:26:51;;;;;;;;;;;;;;;13.28;35.40;94705.50;10436406;28;2551;-53
2022/12/11 16:31:51;;;;;;;;;;;;;;;13.30;35.36;94716.44;10434171;28;2113;-55
2022/12/11 16:36:53;;;;;;;;;;;;;;;13.28;35.29;94719.28;10439132;28;2686;-52
2022/12/11 16:41:53;;;;;;;;;;;;;;;13.27;35.12;94716.97;10432297;28;1979;-52
2022/12/11 16:46:54;;;;;;;;;;;;;;;13.26;35.18;94723.97;10454992;28;2661;-59
2022/12/11 16:51:54;;;;;;;;;;;;;;;13.27;35.02;94730.72;10454393;28;2617;-51
2022/12/11 16:56:54;;;;;;;;;;;;;;;13.30;35.12;94732.06;10446696;28;2625;-55
2022/12/11 17:01:55;;;;;;;;;;;;;;;13.24;35.15;94728.66;10442935;28;3025;-55
2022/12/11 17:06:58;;;;;;;;;;;;;;;13.24;35.28;94727.84;10436898;28;2300;-51
2022/12/11 17:11:59;;;;;;;;;;;;;;;13.23;35.28;94723.69;10437100;28;2317;-54
2022/12/11 17:16:59;;;;;;;;;;;;;;;13.20;35.23;94730.19;10441673;28;2897;-50
2022/12/11 17:21:59;;;;;;;;;;;;;;;13.20;35.25;94729.38;10441629;28;2925;-54
2022/12/11 17:26:59;;;;;;;;;;;;;;;13.19;35.14;94723.41;10427324;28;2943;-53
2022/12/11 17:32:02;;;;;;;;;;;;;;;13.19;35.26;94728.59;10434793;28;2866;-52
2022/12/11 17:37:03;;;;;;;;;;;;;;;13.18;35.16;94726.25;10437754;28;2848;-53
2022/12/11 17:42:08;;;;;;;;;;;;;;;13.17;35.13;94733.28;10442138;28;2830;-51
2022/12/11 17:47:10;;;;;;;;;;;;;;;13.16;35.02;94725.72;10445641;28;2281;-55
2022/12/11 17:52:11;;;;;;;;;;;;;;;13.20;35.37;94734.59;10447189;28;2881;-53
2022/12/11 17:57:11;;;;;;;;;;;;;;;13.34;35.16;94735.72;10434873;28;2400;-53
2022/12/11 18:02:11;;;;;;;;;;;;;;;13.47;35.25;94735.28;10430059;28;2963;-54
2022/12/11 18:07:11;;;;;;;;;;;;;;;13.61;35.51;94739.78;10435418;28;2876;-56
2022/12/11 18:12:12;;;;;;;;;;;;;;;13.75;35.63;94742.69;10445093;28;2860;-59
2022/12/11 18:17:12;;;;;;;;;;;;;;;13.87;35.73;94741.44;10436319;28;2866;-58
2022/12/11 18:22:18;;;;;;;;;;;;;;;14.07;35.41;94743.34;10436271;28;2827;-50
2022/12/11 18:27:18;;;;;;;;;;;;;;;14.12;35.54;94738.13;10434038;28;2942;-66
2022/12/11 18:32:19;;;;;;;;;;;;;;;14.34;35.45;94749.16;10431710;28;2303;-57
2022/12/11 18:37:19;;;;;;;;;;;;;;;14.45;35.40;94745.53;10427301;28;2853;-58
2022/12/11 18:42:19;;;;;;;;;;;;;;;14.41;35.06;94757.50;10443689;28;3055;-59
2022/12/11 18:47:19;;;;;;;;;;;;;;;14.54;35.27;94753.63;10429105;28;2327;-54
2022/12/11 18:52:20;;;;;;;;;;;;;;;14.57;34.50;94756.50;10439065;28;2865;-54
2022/12/11 18:57:20;;;;;;;;;;;;;;;14.61;33.90;94764.59;10456163;28;2937;-53
2022/12/11 19:02:21;;;;;;;;;;;;;;;14.82;34.13;94760.19;10444373;28;2301;-55
2022/12/11 19:07:21;;;;;;;;;;;;;;;14.91;33.63;94766.44;10429737;28;3042;-59
2022/12/11 19:12:22;;;;;;;;;;;;;;;15.13;34.90;94769.53;10441444;28;2848;-55
2022/12/11 19:17:22;;;;;;;;;;;;;;;15.15;33.51;94772.66;10432459;28;2900;-58
2022/12/11 19:22:22;;;;;;;;;;;;;;;15.25;33.14;94770.06;10444452;28;2882;-54
2022/12/11 19:27:23;;;;;;;;;;;;;;;15.34;32.99;94763.25;10438753;28;3080;-55
2022/12/11 19:32:23;;;;;;;;;;;;;;;15.45;32.77;94764.84;10457462;28;2886;-52
2022/12/11 19:37:24;;;;;;;;;;;;;;;15.62;33.17;94761.94;10450901;28;2986;-52
2022/12/11 19:42:25;;;;;;;;;;;;;;;15.73;32.42;94755.63;10445964;28;2835;-53
2022/12/11 19:47:25;;;;;;;;;;;;;;;15.86;32.66;94758.47;10442406;28;2858;-52
2022/12/11 19:52:26;;;;;;;;;;;;;;;16.02;32.20;94757.34;10433493;28;2988;-57
2022/12/11 19:57:26;;;;;;;;;;;;;;;16.23;33.15;94763.25;10383820;28;1118872;-52
2022/12/11 20:02:26;;;;;;;;;;;;;;;16.35;31.91;94760.31;10448967;28;2873;-54
2022/12/11 20:07:27;;;;;;;;;;;;;;;16.39;31.66;94763.94;10450524;28;2372;-52
2022/12/11 20:12:37;;;;;;;;;;;;;;;16.45;32.32;94763.66;10444838;28;2977;-52
2022/12/11 20:17:42;;;;;;;;;;;;;;;16.63;31.49;94763.03;10425825;28;2929;-54
2022/12/11 20:22:43;;;;;;;;;;;;;;;16.82;31.28;94761.34;10445859;28;2854;-51
2022/12/11 20:27:43;;;;;;;;;;;;;;;16.99;31.14;94760.97;10445259;28;2230;-51
2022/12/11 20:32:43;;;;;;;;;;;;;;;17.15;31.20;94758.97;10447363;28;2343;-53
2022/12/11 20:37:49;;;;;;;;;;;;;;;17.27;30.76;94751.56;10455871;28;3159;-51
2022/12/11 20:42:50;;;;;;;;;;;;;;;17.42;30.80;94760.03;10453516;28;2830;-50
2022/12/11 20:47:50;;;;;;;;;;;;;;;17.51;30.45;94763.66;10468210;28;2908;-52
2022/12/11 20:52:50;;;;;;;;;;;;;;;17.61;30.60;94762.78;10459424;28;2933;-49
2022/12/11 20:57:52;;;;;;;;;;;;;;;17.70;30.38;94759.25;10463216;28;3305;-56
2022/12/11 21:02:53;;;;;;;;;;;;;;;17.79;30.55;94757.59;10451402;28;2909;-50
2022/12/11 21:07:53;;;;;;;;;;;;;;;17.88;30.30;94763.78;10460988;28;2855;-50
2022/12/11 21:12:53;;;;;;;;;;;;;;;17.98;29.82;94764.72;10459948;28;2854;-54
2022/12/11 21:17:54;;;;;;;;;;;;;;;18.05;30.32;94755.47;10457037;28;2845;-51
2022/12/11 21:22:56;;;;;;;;;;;;;;;18.11;29.79;94751.72;10452031;28;2892;-49
2022/12/11 21:27:56;;;;;;;;;;;;;;;18.18;29.75;94743.47;10455487;28;2316;-50
2022/12/11 21:32:56;;;;;;;;;;;;;;;18.24;29.11;94756.25;10438667;28;2905;-53
2022/12/11 21:37:57;;;;;;;;;;;;;;;18.31;29.90;94748.03;10445794;28;2833;-52
2022/12/11 21:42:57;;;;;;;;;;;;;;;18.36;29.36;94751.38;10455579;28;2881;-50
2022/12/11 21:47:57;;;;;;;;;;;;;;;18.42;29.22;94759.97;10450631;28;2356;-54
2022/12/11 21:52:58;;;;;;;;;;;;;;;18.46;29.34;94743.41;10429999;28;2917;-54
2022/12/11 21:57:58;;;;;;;;;;;;;;;18.51;29.18;94745.94;10446077;28;2862;-48
2022/12/11 22:02:58;;;;;;;;;;;;;;;18.29;29.96;94752.78;10440711;28;2891;-52
2022/12/11 22:07:59;;;;;;;;;;;;;;;18.08;31.09;94741.00;10438585;28;2941;-51
2022/12/11 22:12:59;;;;;;;;;;;;;;;17.96;31.45;94745.88;10441879;28;2826;-53
2022/12/11 22:17:59;;;;;;;;;;;;;;;18.19;30.00;94750.31;10443296;28;2854;-50
2022/12/11 22:23:00;;;;;;;;;;;;;;;18.36;29.80;94750.59;10442635;28;2257;-53
2022/12/11 22:28:00;;;;;;;;;;;;;;;18.46;29.46;94753.13;10442277;28;2301;-51
2022/12/11 22:33:01;;;;;;;;;;;;;;;18.56;30.16;94759.00;10442101;28;2949;-48
2022/12/11 22:38:01;;;;;;;;;;;;;;;18.59;28.62;94753.19;10435621;28;2838;-52
2022/12/11 22:43:01;;;;;;;;;;;;;;;18.65;29.67;94743.38;10438455;28;2873;-51
2022/12/11 22:48:02;;;;;;;;;;;;;;;18.70;29.68;94751.19;10442197;28;2842;-52
2022/12/11 22:53:02;;;;;;;;;;;;;;;18.73;28.73;94758.50;10430607;28;2842;-51
2022/12/11 22:58:02;;;;;;;;;;;;;;;18.75;28.63;94755.59;10451473;28;3223;-51
2022/12/11 23:03:03;;;;;;;;;;;;;;;18.80;28.80;94756.28;10437177;28;2309;-52
2022/12/11 23:08:03;;;;;;;;;;;;;;;18.80;28.62;94758.91;10439483;28;2911;-51
2022/12/11 23:13:04;;;;;;;;;;;;;;;18.81;28.80;94760.50;10426989;28;2274;-54
2022/12/11 23:18:04;;;;;;;;;;;;;;;18.84;29.76;94753.88;10451737;28;2892;-54
2022/12/11 23:23:04;;;;;;;;;;;;;;;18.83;29.23;94757.56;10450518;28;2864;-51
2022/12/11 23:28:04;;;;;;;;;;;;;;;18.83;28.40;94758.34;10440220;28;2846;-53
2022/12/11 23:33:05;;;;;;;;;;;;;;;18.83;28.81;94755.72;10453731;28;3040;-53
2022/12/11 23:38:08;;;;;;;;;;;;;;;18.82;29.00;94754.16;10439731;28;2874;-49
2022/12/11 23:43:08;;;;;;;;;;;;;;;18.83;29.70;94750.47;10439601;28;2464;-54
2022/12/11 23:48:08;;;;;;;;;;;;;;;18.83;28.63;94762.81;10434900;28;2901;-50
2022/12/11 23:53:09;;;;;;;;;;;;;;;18.83;30.33;94757.56;10437737;28;2837;-51
2022/12/11 23:58:09;;;;;;;;;;;;;;;18.82;30.32;94769.91;10450750;28;3005;-53
